Aérodrome :







RETROUVEZ-NOUS SUR...

 
LOGIN :

S'inscrire | Disclaimer

   EN    FR    IT 

 









Légende :    VFR   VFR Marginal   IFR   IFR Intensif   IFR Très Intensif
Visi : 
Plafond : 
>= 8 km
>= 3000ft
5 à 8 km
1000 à 3000 ft
1500m à 5 km
500 à 1000 ft
800 à 1500m
200 à 500 ft
< 800m
< 200 ft
Symboles :   Orages  Brouillard  Fortes neiges  Fortes précipitations  Vent > 20 kt






- Altitude de l'aérodrome : 270 ft
- Code IATA : YMX


CYMX - Montreal International Mirabel

DERNIER METAR :
  • 221600Z 24012KT 25SM FEW040 SCT140 BKN220 M01/M09 A3005 RMK SC1AC3CI3 SLP182

METARs EXPIRÉS :
  • 221500Z 25013G19KT 25SM FEW040 SCT140 BKN220 M02/M09 A3005 RMK SC2AC2CI3 SLP182
  • 221400Z 25010G15KT 220V280 25SM FEW045 BKN150 OVC250 M03/M10 A3005 RMK SC2AC5CI1 SLP181

TAF TAF CYMX
Valide du 22 à 12h jusqu'au 23 à 12h UTC


221138Z 2212/2312 24010G20KT P6SM BKN050 BKN220
TEMPO 2212/2218 BKN020 BKN200
FM221800 24010G20KT P6SM BKN025 BKN200
FM222300 23010KT P6SM BKN020
FM231100 23008KT P6SM SCT008 BKN012 RMK NXT FCST BY 221800Z



MET'MAP, la Météo Aéronautique d'un coup d'oeil ! - Copyright ORBIFLY Décembre 2007 - Disclaimer

ORBIFLY MET'MAP TEAM :

Programmation & Développement : Alexandra Zaïnal
Sur une idée originale de : Baudouin d'Aumeries
Assistance à la programmation : Marc-Olivier Méhu
Soutien technique & logistique : Manuel Goepfert

Contact : metmap@orbifly.com




SOURCES & CREDITS :

   NOAA